sensor_id;sensor_type;location;lat;lon;timestamp;pressure;altitude;pressure_sealevel;temperature;humidity
67052;BME280;53957;47.222;18.670;2023-02-12T00:01:18;101534.19;;;3.62;100.00
67052;BME280;53957;47.222;18.670;2023-02-12T00:04:21;101530.12;;;3.46;100.00
67052;BME280;53957;47.222;18.670;2023-02-12T00:07:24;101516.94;;;3.40;100.00
67052;BME280;53957;47.222;18.670;2023-02-12T00:10:27;101513.06;;;3.49;100.00
67052;BME280;53957;47.222;18.670;2023-02-12T00:13:30;101527.88;;;3.50;100.00
67052;BME280;53957;47.222;18.670;2023-02-12T00:16:35;101517.72;;;3.47;100.00
67052;BME280;53957;47.222;18.670;2023-02-12T00:19:38;101523.03;;;3.53;100.00
67052;BME280;53957;47.222;18.670;2023-02-12T00:22:41;101529.31;;;3.52;100.00
67052;BME280;53957;47.222;18.670;2023-02-12T00:25:44;101529.94;;;3.54;100.00
67052;BME280;53957;47.222;18.670;2023-02-12T00:28:49;101514.91;;;3.48;100.00
67052;BME280;53957;47.222;18.670;2023-02-12T00:31:52;101521.78;;;3.49;100.00
67052;BME280;53957;47.222;18.670;2023-02-12T00:34:56;101522.22;;;3.46;100.00
67052;BME280;53957;47.222;18.670;2023-02-12T00:37:58;101518.13;;;3.37;100.00
67052;BME280;53957;47.222;18.670;2023-02-12T00:41:02;101532.53;;;3.28;100.00
67052;BME280;53957;47.222;18.670;2023-02-12T00:44:07;101540.62;;;3.13;100.00
67052;BME280;53957;47.222;18.670;2023-02-12T00:47:10;101547.31;;;3.15;100.00
67052;BME280;53957;47.222;18.670;2023-02-12T00:50:13;101559.88;;;3.13;100.00
67052;BME280;53957;47.222;18.670;2023-02-12T00:53:17;101563.72;;;3.04;100.00
67052;BME280;53957;47.222;18.670;2023-02-12T00:56:21;101562.72;;;3.18;100.00
67052;BME280;53957;47.222;18.670;2023-02-12T00:59:25;101575.59;;;3.48;100.00
67052;BME280;53957;47.222;18.670;2023-02-12T01:02:28;101570.31;;;3.48;100.00
67052;BME280;53957;47.222;18.670;2023-02-12T01:05:32;101572.56;;;3.58;100.00
67052;BME280;53957;47.222;18.670;2023-02-12T01:08:34;101573.16;;;3.67;100.00
67052;BME280;53957;47.222;18.670;2023-02-12T01:11:40;101569.69;;;3.60;100.00
67052;BME280;53957;47.222;18.670;2023-02-12T01:14:43;101570.09;;;3.63;100.00
67052;BME280;53957;47.222;18.670;2023-02-12T01:17:46;101570.09;;;3.70;100.00
67052;BME280;53957;47.222;18.670;2023-02-12T01:20:50;101570.13;;;3.77;100.00
67052;BME280;53957;47.222;18.670;2023-02-12T01:23:53;101556.09;;;3.69;100.00
67052;BME280;53957;47.222;18.670;2023-02-12T01:26:55;101564.81;;;3.70;100.00
67052;BME280;53957;47.222;18.670;2023-02-12T01:29:58;101555.69;;;3.66;100.00
67052;BME280;53957;47.222;18.670;2023-02-12T01:33:01;101550.41;;;3.52;100.00
67052;BME280;53957;47.222;18.670;2023-02-12T01:36:05;101542.09;;;3.69;100.00
67052;BME280;53957;47.222;18.670;2023-02-12T01:39:09;101538.84;;;3.60;100.00
67052;BME280;53957;47.222;18.670;2023-02-12T01:42:14;101546.34;;;3.50;100.00
67052;BME280;53957;47.222;18.670;2023-02-12T01:45:29;101535.41;;;3.46;100.00
67052;BME280;53957;47.222;18.670;2023-02-12T01:48:44;101536.59;;;3.50;100.00
67052;BME280;53957;47.222;18.670;2023-02-12T01:52:03;101540.47;;;3.41;100.00
67052;BME280;53957;47.222;18.670;2023-02-12T01:55:09;101542.25;;;3.27;100.00
67052;BME280;53957;47.222;18.670;2023-02-12T01:58:13;101548.37;;;3.41;100.00
67052;BME280;53957;47.222;18.670;2023-02-12T02:01:19;101552.81;;;3.41;100.00
67052;BME280;53957;47.222;18.670;2023-02-12T02:04:26;101546.53;;;3.42;100.00
67052;BME280;53957;47.222;18.670;2023-02-12T02:07:30;101537.00;;;3.41;100.00
67052;BME280;53957;47.222;18.670;2023-02-12T02:10:34;101528.69;;;3.24;100.00
67052;BME280;53957;47.222;18.670;2023-02-12T02:13:37;101519.34;;;3.34;100.00
67052;BME280;53957;47.222;18.670;2023-02-12T02:17:07;101514.47;;;3.25;100.00
67052;BME280;53957;47.222;18.670;2023-02-12T02:24:23;101496.44;;;3.21;100.00
67052;BME280;53957;47.222;18.670;2023-02-12T02:27:29;101499.28;;;3.33;100.00
67052;BME280;53957;47.222;18.670;2023-02-12T02:33:54;101515.50;;;3.24;100.00
67052;BME280;53957;47.222;18.670;2023-02-12T02:37:17;101514.87;;;3.15;100.00
67052;BME280;53957;47.222;18.670;2023-02-12T02:40:27;101534.75;;;3.17;100.00
67052;BME280;53957;47.222;18.670;2023-02-12T02:43:49;101529.09;;;3.14;100.00
67052;BME280;53957;47.222;18.670;2023-02-12T02:46:54;101512.22;;;3.08;100.00
67052;BME280;53957;47.222;18.670;2023-02-12T02:50:05;101526.44;;;3.20;100.00
67052;BME280;53957;47.222;18.670;2023-02-12T02:53:13;101542.84;;;3.09;100.00
67052;BME280;53957;47.222;18.670;2023-02-12T02:56:19;101538.41;;;3.16;100.00
67052;BME280;53957;47.222;18.670;2023-02-12T02:59:33;101538.59;;;3.08;100.00
67052;BME280;53957;47.222;18.670;2023-02-12T03:02:39;101544.25;;;2.98;100.00
67052;BME280;53957;47.222;18.670;2023-02-12T03:05:46;101540.34;;;2.87;100.00
67052;BME280;53957;47.222;18.670;2023-02-12T03:08:55;101539.56;;;2.94;100.00
67052;BME280;53957;47.222;18.670;2023-02-12T03:12:03;101538.75;;;3.00;100.00
67052;BME280;53957;47.222;18.670;2023-02-12T03:15:20;101546.66;;;2.93;100.00
67052;BME280;53957;47.222;18.670;2023-02-12T03:18:32;101541.97;;;2.88;100.00
67052;BME280;53957;47.222;18.670;2023-02-12T03:21:42;101546.03;;;2.84;100.00
67052;BME280;53957;47.222;18.670;2023-02-12T03:24:53;101542.41;;;2.85;100.00
67052;BME280;53957;47.222;18.670;2023-02-12T03:28:21;101550.88;;;2.87;100.00
67052;BME280;53957;47.222;18.670;2023-02-12T03:35:24;101573.38;;;2.77;100.00
67052;BME280;53957;47.222;18.670;2023-02-12T03:38:36;101577.59;;;2.71;100.00
67052;BME280;53957;47.222;18.670;2023-02-12T03:41:44;101590.38;;;2.74;100.00
67052;BME280;53957;47.222;18.670;2023-02-12T03:45:09;101600.69;;;2.69;100.00
67052;BME280;53957;47.222;18.670;2023-02-12T03:51:41;101612.00;;;2.63;100.00
67052;BME280;53957;47.222;18.670;2023-02-12T03:54:46;101620.88;;;2.55;100.00
67052;BME280;53957;47.222;18.670;2023-02-12T03:57:54;101622.72;;;2.54;100.00
67052;BME280;53957;47.222;18.670;2023-02-12T04:01:02;101627.78;;;2.56;100.00
67052;BME280;53957;47.222;18.670;2023-02-12T04:04:07;101624.44;;;2.40;100.00
67052;BME280;53957;47.222;18.670;2023-02-12T04:07:11;101627.72;;;2.49;100.00
67052;BME280;53957;47.222;18.670;2023-02-12T04:10:16;101631.00;;;2.58;100.00
67052;BME280;53957;47.222;18.670;2023-02-12T04:16:52;101649.12;;;2.39;100.00
67052;BME280;53957;47.222;18.670;2023-02-12T04:23:52;101667.16;;;2.36;100.00
67052;BME280;53957;47.222;18.670;2023-02-12T04:27:13;101666.88;;;2.24;100.00
67052;BME280;53957;47.222;18.670;2023-02-12T04:30:28;101655.13;;;2.27;100.00
67052;BME280;53957;47.222;18.670;2023-02-12T04:37:32;101663.44;;;2.02;100.00
67052;BME280;53957;47.222;18.670;2023-02-12T04:40:39;101670.22;;;1.89;100.00
67052;BME280;53957;47.222;18.670;2023-02-12T04:43:43;101675.59;;;1.81;100.00
67052;BME280;53957;47.222;18.670;2023-02-12T04:46:46;101668.47;;;1.75;100.00
67052;BME280;53957;47.222;18.670;2023-02-12T04:49:49;101669.91;;;1.77;100.00
67052;BME280;53957;47.222;18.670;2023-02-12T04:52:52;101674.91;;;1.72;100.00
67052;BME280;53957;47.222;18.670;2023-02-12T04:55:55;101670.59;;;1.65;100.00
67052;BME280;53957;47.222;18.670;2023-02-12T04:58:58;101685.00;;;1.69;100.00
67052;BME280;53957;47.222;18.670;2023-02-12T05:02:02;101684.37;;;1.67;100.00
67052;BME280;53957;47.222;18.670;2023-02-12T05:05:05;101687.00;;;1.67;100.00
67052;BME280;53957;47.222;18.670;2023-02-12T05:08:08;101689.25;;;1.70;100.00
67052;BME280;53957;47.222;18.670;2023-02-12T05:11:12;101692.00;;;1.61;100.00
67052;BME280;53957;47.222;18.670;2023-02-12T05:14:15;101704.63;;;1.51;100.00
67052;BME280;53957;47.222;18.670;2023-02-12T05:17:21;101701.06;;;1.59;100.00
67052;BME280;53957;47.222;18.670;2023-02-12T05:20:24;101701.31;;;1.42;100.00
67052;BME280;53957;47.222;18.670;2023-02-12T05:23:33;101707.47;;;1.50;100.00
67052;BME280;53957;47.222;18.670;2023-02-12T05:26:36;101716.69;;;1.45;100.00
67052;BME280;53957;47.222;18.670;2023-02-12T05:29:39;101715.41;;;1.56;100.00
67052;BME280;53957;47.222;18.670;2023-02-12T05:32:43;101725.44;;;1.68;100.00
67052;BME280;53957;47.222;18.670;2023-02-12T05:35:45;101720.72;;;1.78;100.00
67052;BME280;53957;47.222;18.670;2023-02-12T05:38:51;101735.31;;;1.81;100.00
67052;BME280;53957;47.222;18.670;2023-02-12T05:41:54;101735.13;;;1.82;100.00
67052;BME280;53957;47.222;18.670;2023-02-12T05:44:57;101737.09;;;1.80;100.00
67052;BME280;53957;47.222;18.670;2023-02-12T05:48:00;101725.97;;;1.78;100.00
67052;BME280;53957;47.222;18.670;2023-02-12T05:51:11;101731.59;;;1.75;100.00
67052;BME280;53957;47.222;18.670;2023-02-12T05:54:16;101740.69;;;1.72;100.00
67052;BME280;53957;47.222;18.670;2023-02-12T05:57:19;101746.03;;;1.79;100.00
67052;BME280;53957;47.222;18.670;2023-02-12T06:00:22;101750.72;;;1.84;100.00
67052;BME280;53957;47.222;18.670;2023-02-12T06:03:26;101756.16;;;1.82;100.00
67052;BME280;53957;47.222;18.670;2023-02-12T06:06:30;101767.06;;;1.79;100.00
67052;BME280;53957;47.222;18.670;2023-02-12T06:09:34;101768.97;;;1.85;100.00
67052;BME280;53957;47.222;18.670;2023-02-12T06:12:37;101778.66;;;1.85;100.00
67052;BME280;53957;47.222;18.670;2023-02-12T06:15:40;101780.34;;;1.92;100.00
67052;BME280;53957;47.222;18.670;2023-02-12T06:18:43;101787.72;;;1.82;100.00
67052;BME280;53957;47.222;18.670;2023-02-12T06:21:47;101792.00;;;1.83;100.00
67052;BME280;53957;47.222;18.670;2023-02-12T06:24:50;101802.59;;;1.90;100.00
67052;BME280;53957;47.222;18.670;2023-02-12T06:27:53;101804.03;;;1.92;100.00
67052;BME280;53957;47.222;18.670;2023-02-12T06:30:56;101802.13;;;2.01;100.00
67052;BME280;53957;47.222;18.670;2023-02-12T06:34:05;101805.47;;;2.10;100.00
67052;BME280;53957;47.222;18.670;2023-02-12T06:37:08;101824.25;;;2.07;100.00
67052;BME280;53957;47.222;18.670;2023-02-12T06:40:11;101823.13;;;2.16;100.00
67052;BME280;53957;47.222;18.670;2023-02-12T06:43:15;101807.03;;;2.26;100.00
67052;BME280;53957;47.222;18.670;2023-02-12T06:46:18;101820.56;;;2.45;100.00
67052;BME280;53957;47.222;18.670;2023-02-12T06:49:23;101823.91;;;2.53;100.00
67052;BME280;53957;47.222;18.670;2023-02-12T06:52:26;101827.66;;;2.66;100.00
67052;BME280;53957;47.222;18.670;2023-02-12T06:55:29;101811.78;;;2.87;100.00
67052;BME280;53957;47.222;18.670;2023-02-12T06:58:32;101829.81;;;3.47;100.00
67052;BME280;53957;47.222;18.670;2023-02-12T07:01:35;101837.37;;;4.12;100.00
67052;BME280;53957;47.222;18.670;2023-02-12T07:04:40;101844.78;;;4.77;100.00
67052;BME280;53957;47.222;18.670;2023-02-12T07:07:43;101846.41;;;5.19;100.00
67052;BME280;53957;47.222;18.670;2023-02-12T07:10:47;101845.53;;;5.97;100.00
67052;BME280;53957;47.222;18.670;2023-02-12T07:13:53;101850.94;;;6.80;100.00
67052;BME280;53957;47.222;18.670;2023-02-12T07:16:56;101851.25;;;7.71;100.00
67052;BME280;53957;47.222;18.670;2023-02-12T07:20:00;101853.63;;;7.79;100.00
67052;BME280;53957;47.222;18.670;2023-02-12T07:23:06;101853.91;;;8.20;97.92
67052;BME280;53957;47.222;18.670;2023-02-12T07:26:13;101863.31;;;8.34;98.06
67052;BME280;53957;47.222;18.670;2023-02-12T07:29:36;101870.00;;;8.25;96.25
67052;BME280;53957;47.222;18.670;2023-02-12T07:32:39;101864.25;;;8.70;96.02
67052;BME280;53957;47.222;18.670;2023-02-12T07:35:42;101854.97;;;8.61;94.36
67052;BME280;53957;47.222;18.670;2023-02-12T07:38:46;101867.50;;;8.42;95.10
67052;BME280;53957;47.222;18.670;2023-02-12T07:41:50;101874.03;;;8.28;96.79
67052;BME280;53957;47.222;18.670;2023-02-12T07:44:52;101881.13;;;7.48;98.87
67052;BME280;53957;47.222;18.670;2023-02-12T07:47:56;101885.00;;;8.50;97.06
67052;BME280;53957;47.222;18.670;2023-02-12T07:51:06;101877.50;;;8.28;96.88
67052;BME280;53957;47.222;18.670;2023-02-12T07:54:10;101878.00;;;8.91;95.70
67052;BME280;53957;47.222;18.670;2023-02-12T07:57:13;101891.06;;;8.08;96.97
67052;BME280;53957;47.222;18.670;2023-02-12T08:00:17;101902.75;;;8.80;94.87
67052;BME280;53957;47.222;18.670;2023-02-12T08:03:20;101901.03;;;8.97;92.97
67052;BME280;53957;47.222;18.670;2023-02-12T08:06:25;101919.31;;;8.82;93.80
67052;BME280;53957;47.222;18.670;2023-02-12T08:09:29;101926.19;;;8.59;95.06
67052;BME280;53957;47.222;18.670;2023-02-12T08:12:32;101927.69;;;8.55;95.76
67052;BME280;53957;47.222;18.670;2023-02-12T08:15:35;101940.78;;;9.23;90.97
67052;BME280;53957;47.222;18.670;2023-02-12T08:18:39;101935.37;;;8.75;91.89
67052;BME280;53957;47.222;18.670;2023-02-12T08:21:43;101937.50;;;10.21;88.03
67052;BME280;53957;47.222;18.670;2023-02-12T08:24:46;101935.37;;;9.94;87.99
67052;BME280;53957;47.222;18.670;2023-02-12T08:27:50;101943.81;;;10.03;86.40
67052;BME280;53957;47.222;18.670;2023-02-12T08:30:59;101948.37;;;10.60;83.94
67052;BME280;53957;47.222;18.670;2023-02-12T08:37:21;101959.81;;;10.89;82.19
67052;BME280;53957;47.222;18.670;2023-02-12T08:40:24;101956.09;;;10.73;80.66
67052;BME280;53957;47.222;18.670;2023-02-12T08:43:28;101954.88;;;10.81;79.66
67052;BME280;53957;47.222;18.670;2023-02-12T08:46:38;101953.62;;;10.14;82.73
67052;BME280;53957;47.222;18.670;2023-02-12T08:49:42;101953.13;;;11.04;80.59
67052;BME280;53957;47.222;18.670;2023-02-12T08:53:03;101960.88;;;11.22;81.24
67052;BME280;53957;47.222;18.670;2023-02-12T09:14:29;101992.56;;;11.53;76.89
67052;BME280;53957;47.222;18.670;2023-02-12T09:18:01;101991.19;;;12.06;74.56
67052;BME280;53957;47.222;18.670;2023-02-12T09:21:14;102001.28;;;11.99;76.89
67052;BME280;53957;47.222;18.670;2023-02-12T09:24:25;102001.75;;;11.23;76.98
67052;BME280;53957;47.222;18.670;2023-02-12T09:27:31;102000.25;;;10.81;78.15
67052;BME280;53957;47.222;18.670;2023-02-12T09:30:36;102009.87;;;11.84;75.17
67052;BME280;53957;47.222;18.670;2023-02-12T09:33:48;102004.56;;;11.67;74.13
67052;BME280;53957;47.222;18.670;2023-02-12T09:36:56;102012.59;;;12.06;73.34
67052;BME280;53957;47.222;18.670;2023-02-12T09:39:59;102013.22;;;12.36;72.55
67052;BME280;53957;47.222;18.670;2023-02-12T09:46:27;102017.41;;;11.70;74.17
67052;BME280;53957;47.222;18.670;2023-02-12T09:53:28;102026.75;;;12.07;70.78
67052;BME280;53957;47.222;18.670;2023-02-12T09:56:33;102026.34;;;12.15;71.34
67052;BME280;53957;47.222;18.670;2023-02-12T09:59:42;102025.19;;;12.33;71.28
67052;BME280;53957;47.222;18.670;2023-02-12T10:02:49;102020.94;;;12.32;70.66
67052;BME280;53957;47.222;18.670;2023-02-12T10:06:00;102023.91;;;12.36;70.09
67052;BME280;53957;47.222;18.670;2023-02-12T10:09:58;102020.47;;;12.40;70.15
67052;BME280;53957;47.222;18.670;2023-02-12T10:24:04;102020.00;;;11.99;69.47
67052;BME280;53957;47.222;18.670;2023-02-12T10:30:48;102028.56;;;12.46;70.50
67052;BME280;53957;47.222;18.670;2023-02-12T10:34:19;102034.00;;;11.89;68.41
67052;BME280;53957;47.222;18.670;2023-02-12T10:37:57;102035.81;;;11.16;72.85
67052;BME280;53957;47.222;18.670;2023-02-12T10:41:02;102034.06;;;10.92;73.42
67052;BME280;53957;47.222;18.670;2023-02-12T10:44:09;102031.84;;;10.72;77.15
67052;BME280;53957;47.222;18.670;2023-02-12T10:47:18;102030.81;;;11.19;73.58
67052;BME280;53957;47.222;18.670;2023-02-12T10:53:40;102037.03;;;10.79;73.15
67052;BME280;53957;47.222;18.670;2023-02-12T10:56:43;102015.50;;;10.40;76.35
67052;BME280;53957;47.222;18.670;2023-02-12T10:59:50;102027.72;;;10.12;77.32
67052;BME280;53957;47.222;18.670;2023-02-12T11:06:17;102028.12;;;10.32;77.47
67052;BME280;53957;47.222;18.670;2023-02-12T11:09:30;102017.88;;;9.89;78.79
67052;BME280;53957;47.222;18.670;2023-02-12T11:12:41;102027.97;;;9.51;82.81
67052;BME280;53957;47.222;18.670;2023-02-12T11:15:50;102022.75;;;9.32;82.25
67052;BME280;53957;47.222;18.670;2023-02-12T11:19:05;102018.69;;;8.88;82.50
67052;BME280;53957;47.222;18.670;2023-02-12T11:22:11;102018.75;;;8.69;84.01
67052;BME280;53957;47.222;18.670;2023-02-12T11:25:22;102012.38;;;9.00;85.45
67052;BME280;53957;47.222;18.670;2023-02-12T11:28:28;102022.09;;;9.61;82.08
67052;BME280;53957;47.222;18.670;2023-02-12T11:31:33;102027.38;;;9.49;82.42
67052;BME280;53957;47.222;18.670;2023-02-12T11:34:37;102028.41;;;10.19;82.10
67052;BME280;53957;47.222;18.670;2023-02-12T11:37:42;102018.25;;;10.33;79.24
67052;BME280;53957;47.222;18.670;2023-02-12T11:40:46;102027.41;;;9.96;78.36
67052;BME280;53957;47.222;18.670;2023-02-12T11:43:50;102018.12;;;9.87;79.53
67052;BME280;53957;47.222;18.670;2023-02-12T11:47:00;102025.25;;;10.22;79.02
67052;BME280;53957;47.222;18.670;2023-02-12T11:53:30;102030.84;;;10.61;74.57
67052;BME280;53957;47.222;18.670;2023-02-12T11:56:45;102029.00;;;10.91;76.74
67052;BME280;53957;47.222;18.670;2023-02-12T11:59:48;102025.88;;;11.28;73.61
67052;BME280;53957;47.222;18.670;2023-02-12T12:03:10;102030.78;;;11.02;72.87
67052;BME280;53957;47.222;18.670;2023-02-12T12:06:22;102023.84;;;11.35;72.13
67052;BME280;53957;47.222;18.670;2023-02-12T12:09:40;102022.63;;;11.09;68.63
67052;BME280;53957;47.222;18.670;2023-02-12T12:13:18;102022.56;;;11.38;70.11
67052;BME280;53957;47.222;18.670;2023-02-12T12:16:36;102033.87;;;10.94;71.47
67052;BME280;53957;47.222;18.670;2023-02-12T12:20:15;102028.38;;;11.18;71.45
67052;BME280;53957;47.222;18.670;2023-02-12T12:23:30;102022.31;;;10.76;72.71
67052;BME280;53957;47.222;18.670;2023-02-12T12:26:38;102015.12;;;10.48;74.08
67052;BME280;53957;47.222;18.670;2023-02-12T12:29:58;102010.94;;;9.99;74.94
67052;BME280;53957;47.222;18.670;2023-02-12T12:50:19;101995.13;;;10.62;70.69
67052;BME280;53957;47.222;18.670;2023-02-12T12:53:47;102002.13;;;10.81;68.88
67052;BME280;53957;47.222;18.670;2023-02-12T13:10:25;102001.41;;;10.04;70.57
67052;BME280;53957;47.222;18.670;2023-02-12T13:13:37;101996.59;;;10.29;69.44
67052;BME280;53957;47.222;18.670;2023-02-12T13:16:48;101998.94;;;10.38;67.84
67052;BME280;53957;47.222;18.670;2023-02-12T13:24:01;101997.62;;;10.40;67.89
67052;BME280;53957;47.222;18.670;2023-02-12T13:27:07;102000.63;;;10.32;68.38
67052;BME280;53957;47.222;18.670;2023-02-12T13:30:22;102000.81;;;10.13;69.28
67052;BME280;53957;47.222;18.670;2023-02-12T13:33:38;101989.59;;;10.11;68.88
67052;BME280;53957;47.222;18.670;2023-02-12T13:36:44;101992.97;;;9.95;69.15
67052;BME280;53957;47.222;18.670;2023-02-12T13:39:49;101998.09;;;9.96;67.48
67052;BME280;53957;47.222;18.670;2023-02-12T13:53:01;101992.50;;;9.86;66.89
67052;BME280;53957;47.222;18.670;2023-02-12T13:56:36;102005.53;;;9.71;66.88
67052;BME280;53957;47.222;18.670;2023-02-12T13:59:49;102007.59;;;9.80;66.94
67052;BME280;53957;47.222;18.670;2023-02-12T14:02:52;102016.16;;;10.06;66.60
67052;BME280;53957;47.222;18.670;2023-02-12T14:06:14;102015.75;;;10.14;65.59
67052;BME280;53957;47.222;18.670;2023-02-12T14:09:21;102022.56;;;10.22;68.72
67052;BME280;53957;47.222;18.670;2023-02-12T14:12:37;102028.03;;;10.27;70.02
67052;BME280;53957;47.222;18.670;2023-02-12T14:15:49;102024.16;;;9.59;68.13
67052;BME280;53957;47.222;18.670;2023-02-12T14:25:40;102029.13;;;8.89;71.52
67052;BME280;53957;47.222;18.670;2023-02-12T14:29:17;102028.12;;;8.72;71.11
67052;BME280;53957;47.222;18.670;2023-02-12T14:35:46;102025.19;;;8.43;73.67
67052;BME280;53957;47.222;18.670;2023-02-12T14:45:35;102026.81;;;8.62;74.18
67052;BME280;53957;47.222;18.670;2023-02-12T14:48:54;102031.62;;;8.84;72.35
67052;BME280;53957;47.222;18.670;2023-02-12T14:55:23;102030.69;;;8.78;72.52
67052;BME280;53957;47.222;18.670;2023-02-12T14:58:27;102031.34;;;8.62;71.64
67052;BME280;53957;47.222;18.670;2023-02-12T15:01:33;102032.31;;;8.49;71.53
67052;BME280;53957;47.222;18.670;2023-02-12T15:04:40;102031.16;;;8.38;72.13
67052;BME280;53957;47.222;18.670;2023-02-12T15:11:44;102031.03;;;8.33;71.24
67052;BME280;53957;47.222;18.670;2023-02-12T15:15:26;102036.63;;;8.06;72.69
67052;BME280;53957;47.222;18.670;2023-02-12T15:18:49;102036.81;;;8.11;72.43
67052;BME280;53957;47.222;18.670;2023-02-12T15:21:54;102036.97;;;7.91;72.58
67052;BME280;53957;47.222;18.670;2023-02-12T16:27:31;102096.56;;;6.02;81.29
67052;BME280;53957;47.222;18.670;2023-02-12T16:30:39;102105.31;;;5.69;83.01
67052;BME280;53957;47.222;18.670;2023-02-12T16:33:52;102114.25;;;5.47;82.95
67052;BME280;53957;47.222;18.670;2023-02-12T16:36:56;102113.78;;;5.30;84.08
67052;BME280;53957;47.222;18.670;2023-02-12T16:43:25;102119.66;;;5.12;85.67
67052;BME280;53957;47.222;18.670;2023-02-12T16:46:50;102142.16;;;4.95;86.98
67052;BME280;53957;47.222;18.670;2023-02-12T16:49:57;102139.41;;;4.68;88.43
67052;BME280;53957;47.222;18.670;2023-02-12T16:53:04;102138.84;;;4.44;90.77
67052;BME280;53957;47.222;18.670;2023-02-12T16:56:12;102141.44;;;4.31;90.32
67052;BME280;53957;47.222;18.670;2023-02-12T16:59:18;102139.25;;;4.13;91.81
67052;BME280;53957;47.222;18.670;2023-02-12T17:02:21;102145.56;;;3.90;93.08
67052;BME280;53957;47.222;18.670;2023-02-12T17:05:24;102156.63;;;3.79;93.58
67052;BME280;53957;47.222;18.670;2023-02-12T17:08:31;102154.63;;;3.59;94.73
67052;BME280;53957;47.222;18.670;2023-02-12T17:11:34;102164.47;;;3.50;95.21
67052;BME280;53957;47.222;18.670;2023-02-12T17:14:38;102174.34;;;3.42;96.22
67052;BME280;53957;47.222;18.670;2023-02-12T17:17:42;102176.91;;;3.35;97.43
67052;BME280;53957;47.222;18.670;2023-02-12T17:20:50;102184.28;;;3.25;97.86
67052;BME280;53957;47.222;18.670;2023-02-12T17:23:56;102190.03;;;3.13;98.18
67052;BME280;53957;47.222;18.670;2023-02-12T17:27:01;102188.50;;;3.04;98.70
67052;BME280;53957;47.222;18.670;2023-02-12T17:30:05;102196.13;;;2.84;96.65
67052;BME280;53957;47.222;18.670;2023-02-12T17:33:09;102196.13;;;2.69;95.91
67052;BME280;53957;47.222;18.670;2023-02-12T17:36:12;102196.47;;;2.36;96.24
67052;BME280;53957;47.222;18.670;2023-02-12T17:39:16;102197.81;;;2.08;97.03
67052;BME280;53957;47.222;18.670;2023-02-12T17:42:19;102194.62;;;1.98;98.11
67052;BME280;53957;47.222;18.670;2023-02-12T17:45:22;102198.59;;;1.94;98.21
67052;BME280;53957;47.222;18.670;2023-02-12T17:48:26;102196.50;;;1.89;98.65
67052;BME280;53957;47.222;18.670;2023-02-12T17:51:29;102204.56;;;1.65;100.00
67052;BME280;53957;47.222;18.670;2023-02-12T17:54:33;102186.84;;;1.58;100.00
67052;BME280;53957;47.222;18.670;2023-02-12T17:57:36;102191.09;;;1.59;100.00
67052;BME280;53957;47.222;18.670;2023-02-12T18:00:40;102196.41;;;1.51;100.00
67052;BME280;53957;47.222;18.670;2023-02-12T18:03:44;102200.91;;;1.03;100.00
67052;BME280;53957;47.222;18.670;2023-02-12T18:06:47;102192.06;;;0.87;100.00
67052;BME280;53957;47.222;18.670;2023-02-12T18:09:50;102202.63;;;0.71;100.00
67052;BME280;53957;47.222;18.670;2023-02-12T18:12:54;102204.94;;;0.66;100.00
67052;BME280;53957;47.222;18.670;2023-02-12T18:15:57;102203.97;;;0.58;100.00
67052;BME280;53957;47.222;18.670;2023-02-12T18:19:01;102213.81;;;0.56;100.00
67052;BME280;53957;47.222;18.670;2023-02-12T18:22:06;102213.81;;;0.23;100.00
67052;BME280;53957;47.222;18.670;2023-02-12T18:25:10;102222.38;;;0.25;100.00
67052;BME280;53957;47.222;18.670;2023-02-12T18:28:13;102215.94;;;0.20;100.00
67052;BME280;53957;47.222;18.670;2023-02-12T18:31:18;102222.84;;;0.21;100.00
67052;BME280;53957;47.222;18.670;2023-02-12T18:34:21;102225.63;;;0.19;100.00
67052;BME280;53957;47.222;18.670;2023-02-12T18:37:25;102228.75;;;0.06;100.00
67052;BME280;53957;47.222;18.670;2023-02-12T18:40:29;102226.44;;;-0.13;100.00
67052;BME280;53957;47.222;18.670;2023-02-12T18:43:32;102221.97;;;-0.21;100.00
67052;BME280;53957;47.222;18.670;2023-02-12T18:46:39;102220.00;;;-0.27;100.00
67052;BME280;53957;47.222;18.670;2023-02-12T18:49:42;102222.03;;;-0.56;100.00
67052;BME280;53957;47.222;18.670;2023-02-12T18:52:46;102223.81;;;-0.73;100.00
67052;BME280;53957;47.222;18.670;2023-02-12T18:55:49;102216.41;;;-0.69;100.00
67052;BME280;53957;47.222;18.670;2023-02-12T18:58:56;102223.53;;;-0.61;100.00
67052;BME280;53957;47.222;18.670;2023-02-12T19:02:04;102233.25;;;-0.37;100.00
67052;BME280;53957;47.222;18.670;2023-02-12T19:05:08;102225.47;;;-0.63;100.00
67052;BME280;53957;47.222;18.670;2023-02-12T19:08:13;102232.44;;;-0.81;100.00
67052;BME280;53957;47.222;18.670;2023-02-12T19:11:17;102228.94;;;-0.89;100.00
67052;BME280;53957;47.222;18.670;2023-02-12T19:14:22;102239.09;;;-0.94;100.00
67052;BME280;53957;47.222;18.670;2023-02-12T19:17:25;102242.38;;;-0.92;100.00
67052;BME280;53957;47.222;18.670;2023-02-12T19:20:29;102237.44;;;-0.95;100.00
67052;BME280;53957;47.222;18.670;2023-02-12T19:23:32;102231.75;;;-0.91;100.00
67052;BME280;53957;47.222;18.670;2023-02-12T19:26:35;102238.22;;;-1.03;100.00
67052;BME280;53957;47.222;18.670;2023-02-12T19:29:39;102236.69;;;-1.14;100.00
67052;BME280;53957;47.222;18.670;2023-02-12T19:32:42;102229.84;;;-1.07;100.00
67052;BME280;53957;47.222;18.670;2023-02-12T19:35:49;102236.13;;;-1.00;100.00
67052;BME280;53957;47.222;18.670;2023-02-12T19:38:53;102235.44;;;-1.02;100.00
67052;BME280;53957;47.222;18.670;2023-02-12T19:41:57;102230.75;;;-1.16;100.00
67052;BME280;53957;47.222;18.670;2023-02-12T19:45:01;102230.06;;;-1.26;100.00